EBCI/CRL METAR and TAF weather

Enter ICAO airport designator
Station Type Date Time Source
EBCI METAR 2020/11/25 22:50 UTC NOAA

EBCI 252250Z 22003KT 9999 SCT038 07/04 Q1019 NOSIG


Station Type Date Time Source
EBCI Decoded METAR 2020/11/25 22:50 UTC NOAA

Charleroi / Gosselies, Belgium (EBCI) 50-28N 004-27E 192M
Nov 25, 2020 - 05:50 PM EST / 2020.11.25 2250 UTC
Wind: from the SW (220 degrees) at 3 MPH (3 KT):0
Visibility: greater than 7 mile(s):0
Sky conditions: partly cloudy
Temperature: 44 F (7 C)
Dew Point: 39 F (4 C)
Relative Humidity: 81%
Pressure (altimeter): 30.09 in. Hg (1019 hPa)
ob: EBCI 252250Z 22003KT 9999 SCT038 07/04 Q1019 NOSIG
cycle: 23

Station Type Date Time Source
EBCI TAF 2020/11/25 18:27 UTC NOAA

TAF EBCI 251711Z 2518/2624 20007KT 9999 SCT030 PROB30
TEMPO 2606/2609 BKN012
BECMG 2609/2611 BKN012 PROB30
TEMPO 2620/2624 4000 -DZ BKN007

Example: see airport list